»·PEaware :: N1955 KVCV-KBFL

N1955 :: KVCV-KBFL

FLIGHT INFORMATION

Flight Status: Arrived
Operator: Privately registered:
United States
More flights under this callsign
Pilot: Ross W. (20449)
Aircraft: BEECH AIRCRAFT BARON
(BE58)
More flights by this aircraft type
Origin: KVCV Socal Logistics
United States
Destination: KBFL Meadows
United States
More flights between these airports :: More routes between these airports
Route: +PMD
File this flight plan on PilotEdge
Remarks:
Altitude:
(Current/Filed)
8,500ft
Speed:
(Current/Filed)
165kts
Departed: 21-Sep-18 10:24 AM
Arrived: 21-Sep-18 11:01 AM
Distance/Time
Traveled:
96nm/0:37
Distance/Time
To Go:
Arrived

Flight Plot

Page will automatically refresh every two minutes.

Flight plan parsing failed; only flown route is shown


Map Options




Map Legend


Flown Route
Filed Route
Departure Airport
Arrival Airport
Navaid (VOR, NDB)
Fix

Horizontal Profiles

Position Reports

Time Latitude Longitude Heading Altitude Ground
Speed
21-Sep-18 10:13 34.589221 -117.374282 41 2867ft 0kts
21-Sep-18 10:14 34.589221 -117.374282 41 2867ft 0kts
21-Sep-18 10:15 34.589221 -117.374282 41 2867ft 0kts
21-Sep-18 10:16 34.589221 -117.374282 41 2867ft 0kts
21-Sep-18 10:17 34.589221 -117.374282 41 2867ft 0kts
21-Sep-18 10:18 34.589221 -117.374282 41 2867ft 0kts
21-Sep-18 10:19 34.589221 -117.374282 41 2867ft 0kts
21-Sep-18 10:20 34.589221 -117.374282 41 2867ft 0kts
21-Sep-18 10:21 34.591452 -117.374490 45 2864ft 16kts
21-Sep-18 10:22 34.593287 -117.368707 90 2857ft 21kts
21-Sep-18 10:23 34.597586 -117.366960 11 2846ft 21kts
21-Sep-18 10:24 34.599045 -117.366616 10 2843ft 0kts
21-Sep-18 10:25 34.599045 -117.366616 10 2843ft 0kts
21-Sep-18 10:26 34.594961 -117.373187 224 2882ft 106kts
21-Sep-18 10:27 34.571684 -117.403282 241 4118ft 128kts
21-Sep-18 10:28 34.563640 -117.441465 299 5488ft 125kts
21-Sep-18 10:29 34.579533 -117.478070 295 6812ft 129kts
21-Sep-18 10:30 34.591343 -117.515563 280 8332ft 109kts
21-Sep-18 10:31 34.594005 -117.563373 277 8505ft 165kts
21-Sep-18 10:32 34.599586 -117.620654 275 8494ft 174kts
21-Sep-18 10:33 34.604187 -117.679507 274 8491ft 176kts
21-Sep-18 10:34 34.608524 -117.738750 273 8486ft 176kts
21-Sep-18 10:35 34.612761 -117.798189 274 8481ft 176kts
21-Sep-18 10:36 34.616978 -117.857583 274 8477ft 177kts
21-Sep-18 10:37 34.621163 -117.917044 274 8479ft 176kts
21-Sep-18 10:38 34.626228 -117.976029 288 8496ft 177kts
21-Sep-18 10:39 34.649764 -118.028856 301 8501ft 178kts
21-Sep-18 10:40 34.679873 -118.076811 308 8504ft 179kts
21-Sep-18 10:41 34.713061 -118.121593 311 8503ft 179kts
21-Sep-18 10:42 34.747955 -118.166451 313 8504ft 187kts
21-Sep-18 10:43 34.776983 -118.219482 300 8501ft 190kts
21-Sep-18 10:44 34.804522 -118.274592 300 8498ft 190kts
21-Sep-18 10:45 34.832186 -118.329359 300 8497ft 190kts
21-Sep-18 10:46 34.855376 -118.374960 300 8507ft 190kts
21-Sep-18 10:47 34.888014 -118.438773 300 8527ft 190kts
21-Sep-18 10:48 34.911432 -118.484392 300 8542ft 191kts
21-Sep-18 10:49 34.942443 -118.537141 307 8556ft 192kts
21-Sep-18 10:50 34.981338 -118.596518 307 8561ft 193kts
21-Sep-18 10:51 35.008971 -118.638928 307 8654ft 189kts
21-Sep-18 10:52 35.055987 -118.686489 321 8656ft 192kts
21-Sep-18 10:53 35.091245 -118.719988 321 8631ft 193kts
21-Sep-18 10:54 35.133397 -118.759741 321 8587ft 193kts
21-Sep-18 10:55 35.175622 -118.800036 321 8529ft 192kts
21-Sep-18 10:56 35.217454 -118.840099 321 8300ft 192kts
21-Sep-18 10:57 35.252358 -118.887804 307 7262ft 188kts
21-Sep-18 10:58 35.287077 -118.935842 313 6067ft 190kts
21-Sep-18 10:59 35.323723 -118.982218 313 4867ft 189kts
21-Sep-18 11:00 35.363933 -119.020671 359 3477ft 186kts
21-Sep-18 11:01 35.402015 -119.023129 344 1986ft 116kts
21-Sep-18 11:02 35.425700 -119.046241 315 751ft 106kts
21-Sep-18 11:03 35.436352 -119.057651 83 492ft 0kts
21-Sep-18 11:04 35.434980 -119.055339 135 491ft 15kts
21-Sep-18 11:05 35.435522 -119.052278 56 502ft 5kts
21-Sep-18 11:06 35.435715 -119.052346 178 502ft 0kts
21-Sep-18 11:07 35.435715 -119.052346 177 502ft 0kts
21-Sep-18 11:08 35.435653 -119.052353 188 502ft 0kts
21-Sep-18 11:09 35.435653 -119.052353 188 502ft 0kts
21-Sep-18 11:10 35.435653 -119.052353 188 502ft 0kts
21-Sep-18 11:11 35.435653 -119.052353 188 502ft 0kts
21-Sep-18 11:12 35.435653 -119.052353 188 502ft 0kts
21-Sep-18 11:13 35.435653 -119.052353 188 502ft 0kts
21-Sep-18 11:14 35.435653 -119.052353 188 502ft 0kts
21-Sep-18 11:15 35.435653 -119.052353 188 502ft 0kts
21-Sep-18 11:16 35.435653 -119.052353 188 502ft 0kts
21-Sep-18 11:17 35.435653 -119.052353 188 502ft 0kts

Navigation Log

Ident Type
Flight plan parsing failed, navigation log unavailable